createdAt,value
2018-10-01T00:00:16.350Z,94.67
2018-10-01T00:01:16.214Z,94.05
2018-10-01T00:02:16.287Z,93.74
2018-10-01T00:03:16.249Z,93.43
2018-10-01T00:04:16.223Z,93.74
2018-10-01T00:05:16.120Z,93.64
2018-10-01T00:06:16.256Z,93.23
2018-10-01T00:07:16.110Z,93.43
2018-10-01T00:08:16.307Z,93.23
2018-10-01T00:09:16.075Z,92.61
2018-10-01T00:10:16.257Z,92.82
2018-10-01T00:11:16.085Z,92.82
2018-10-01T00:12:16.048Z,93.02
2018-10-01T00:13:16.032Z,93.33
2018-10-01T00:14:16.125Z,93.02
2018-10-01T00:15:16.030Z,93.43
2018-10-01T00:16:16.024Z,93.33
2018-10-01T00:17:16.050Z,92.82
2018-10-01T00:18:16.020Z,93.23
2018-10-01T00:19:16.010Z,93.12
2018-10-01T00:20:15.959Z,92.61
2018-10-01T00:21:15.984Z,92.92
2018-10-01T00:22:15.951Z,93.54
2018-10-01T00:23:16.008Z,92.86
2018-10-01T00:24:15.998Z,93.12
2018-10-01T00:25:15.902Z,93.16
2018-10-01T00:26:16.827Z,92.71
2018-10-01T00:27:15.924Z,93.64
2018-10-01T00:28:15.971Z,93.79
2018-10-01T00:29:15.897Z,93.79
2018-10-01T00:30:16.184Z,93.27
2018-10-01T00:31:15.966Z,93.68
2018-10-01T00:32:15.823Z,93.27
2018-10-01T00:33:15.998Z,93.93
2018-10-01T00:34:15.818Z,93.68
2018-10-01T00:35:15.791Z,94.55
2018-10-01T00:36:16.019Z,94.34
2018-10-01T00:37:15.957Z,94.45
2018-10-01T00:38:16.020Z,94.76
2018-10-01T00:39:15.745Z,95.23
2018-10-01T00:40:15.785Z,95.12
2018-10-01T00:41:15.799Z,95.02
2018-10-01T00:42:15.813Z,95.64
2018-10-01T00:43:15.743Z,96.05
2018-10-01T00:44:15.709Z,96.15
2018-10-01T00:45:15.680Z,95.95
2018-10-01T00:46:15.672Z,95.95
2018-10-01T00:47:15.735Z,96.15
2018-10-01T00:48:15.659Z,95.95
2018-10-01T00:49:15.719Z,95.95
2018-10-01T00:50:15.725Z,95.70
2018-10-01T00:51:15.663Z,96.11
2018-10-01T00:52:15.615Z,95.49
2018-10-01T00:53:15.619Z,95.80
2018-10-01T00:54:15.580Z,95.70
2018-10-01T00:55:15.593Z,96.11
2018-10-01T00:56:15.559Z,94.93
2018-10-01T00:57:15.606Z,94.73
2018-10-01T00:58:15.576Z,94.77
2018-10-01T00:59:15.536Z,94.56
2018-10-01T01:00:15.514Z,94.42
2018-10-01T01:01:15.641Z,93.80
2018-10-01T01:02:15.491Z,93.80
2018-10-01T01:03:15.587Z,93.80
2018-10-01T01:04:15.486Z,94.05
2018-10-01T01:05:15.507Z,93.80
2018-10-01T01:06:15.482Z,93.90
2018-10-01T01:07:15.435Z,95.03
2018-10-01T01:08:15.429Z,94.52
2018-10-01T01:09:15.515Z,94.01
2018-10-01T01:10:15.406Z,94.52
2018-10-01T01:11:15.487Z,94.31
2018-10-01T01:12:15.384Z,94.01
2018-10-01T01:13:15.378Z,94.11
2018-10-01T01:14:15.462Z,93.80
2018-10-01T01:15:15.415Z,93.29
2018-10-01T01:16:15.364Z,94.11
2018-10-01T01:17:15.355Z,93.70
2018-10-01T01:18:15.403Z,94.01
2018-10-01T01:19:15.344Z,93.70
2018-10-01T01:20:15.304Z,93.39
2018-10-01T01:21:15.322Z,93.70
2018-10-01T01:22:15.288Z,93.90
2018-10-01T01:23:15.317Z,94.11
2018-10-01T01:24:15.339Z,94.11
2018-10-01T01:25:15.244Z,93.80
2018-10-01T01:26:15.315Z,94.52
2018-10-01T01:27:15.226Z,94.62
2018-10-01T01:28:15.355Z,95.14
2018-10-01T01:29:15.228Z,95.14
2018-10-01T01:30:15.198Z,94.37
2018-10-01T01:31:15.297Z,94.11
2018-10-01T01:32:15.220Z,94.58
2018-10-01T01:33:15.157Z,95.92
2018-10-01T01:34:15.158Z,95.71
2018-10-01T01:35:15.336Z,95.92
2018-10-01T01:36:15.220Z,95.50
2018-10-01T01:37:15.215Z,95.71
2018-10-01T01:38:15.102Z,95.97
2018-10-01T01:39:15.403Z,96.39
2018-10-01T01:40:15.399Z,96.53
2018-10-01T01:41:15.070Z,97.00
2018-10-01T01:42:15.157Z,97.20
2018-10-01T01:43:15.077Z,96.80
2018-10-01T01:44:15.046Z,97.52
2018-10-01T01:45:15.102Z,97.00
2018-10-01T01:46:15.175Z,97.00
2018-10-01T01:47:15.014Z,97.10
2018-10-01T01:48:15.108Z,97.41
2018-10-01T01:49:15.279Z,97.62
2018-10-01T01:50:15.680Z,98.44
2018-10-01T01:51:15.155Z,98.33
2018-10-01T01:52:15.167Z,97.92
2018-10-01T01:53:14.942Z,98.65
2018-10-01T01:54:16.122Z,98.24
2018-10-01T01:55:14.967Z,98.13
2018-10-01T01:56:15.013Z,98.24
2018-10-01T01:57:14.894Z,99.16
2018-10-01T01:58:14.950Z,98.96
2018-10-01T01:59:16.253Z,99.05
2018-10-01T02:00:14.901Z,99.26
2018-10-01T02:01:15.024Z,99.63
2018-10-01T02:02:14.949Z,99.99
2018-10-01T02:03:14.834Z,99.93
2018-10-01T02:04:14.977Z,99.99
2018-10-01T02:05:14.921Z,99.99
2018-10-01T02:06:14.831Z,99.99
2018-10-01T02:07:14.993Z,99.99
2018-10-01T02:08:14.892Z,99.88
2018-10-01T02:09:14.770Z,99.99
2018-10-01T02:10:15.966Z,99.99
2018-10-01T02:11:14.743Z,99.99
2018-10-01T02:12:15.117Z,99.99
2018-10-01T02:13:14.740Z,99.99
2018-10-01T02:14:15.525Z,99.99
2018-10-01T02:15:14.900Z,99.99
2018-10-01T02:16:14.702Z,99.99
2018-10-01T02:17:14.864Z,99.99
2018-10-01T02:18:14.720Z,99.99
2018-10-01T02:19:14.691Z,99.99
2018-10-01T02:20:16.002Z,99.99
2018-10-01T02:21:14.704Z,99.99
2018-10-01T02:22:14.656Z,99.99
2018-10-01T02:23:15.760Z,99.99
2018-10-01T02:24:14.726Z,99.99
2018-10-01T02:25:14.625Z,99.99
2018-10-01T02:26:14.663Z,99.99
2018-10-01T02:27:14.804Z,99.99
2018-10-01T02:28:14.554Z,99.99
2018-10-01T02:29:14.552Z,99.99
2018-10-01T02:30:14.580Z,99.99
2018-10-01T02:31:14.622Z,99.99
2018-10-01T02:32:14.516Z,99.99
2018-10-01T02:33:14.671Z,99.99
2018-10-01T02:34:14.488Z,99.99
2018-10-01T02:35:14.478Z,99.99
2018-10-01T02:36:14.481Z,99.99
2018-10-01T02:37:14.457Z,99.99
2018-10-01T02:38:14.653Z,99.99
2018-10-01T02:39:14.497Z,99.99
2018-10-01T02:40:14.430Z,99.99
2018-10-01T02:41:15.242Z,99.99
2018-10-01T02:42:14.558Z,99.99
2018-10-01T02:43:14.396Z,99.99
2018-10-01T02:44:15.235Z,99.99
2018-10-01T02:45:14.562Z,99.99
2018-10-01T02:46:14.462Z,99.99
2018-10-01T02:47:14.580Z,99.99
2018-10-01T02:48:14.351Z,99.99
2018-10-01T02:49:16.418Z,99.99
2018-10-01T02:50:14.350Z,99.99
2018-10-01T02:51:14.304Z,99.99
2018-10-01T02:52:14.346Z,99.99
2018-10-01T02:53:14.372Z,99.99
2018-10-01T02:54:14.494Z,99.99
2018-10-01T02:55:14.321Z,99.99
2018-10-01T02:56:14.374Z,99.79
2018-10-01T02:57:15.439Z,98.96
2018-10-01T02:58:15.077Z,98.66
2018-10-01T02:59:14.269Z,99.07
2018-10-01T03:00:14.261Z,98.41
2018-10-01T03:01:14.239Z,97.89
2018-10-01T03:02:14.220Z,97.28
2018-10-01T03:03:14.306Z,97.07
2018-10-01T03:04:14.561Z,96.20
2018-10-01T03:05:14.153Z,96.00
2018-10-01T03:06:14.727Z,96.51
2018-10-01T03:07:14.235Z,96.31
2018-10-01T03:08:14.161Z,96.82
2018-10-01T03:09:14.717Z,96.92
2018-10-01T03:10:14.147Z,97.13
2018-10-01T03:11:14.368Z,96.82
2018-10-01T03:12:14.138Z,97.23
2018-10-01T03:13:15.024Z,97.13
2018-10-01T03:14:14.246Z,96.92
2018-10-01T03:15:15.141Z,96.87
2018-10-01T03:16:14.102Z,97.07
2018-10-01T03:17:14.033Z,97.33
2018-10-01T03:18:14.099Z,97.13
2018-10-01T03:19:14.145Z,96.45
2018-10-01T03:20:14.774Z,96.82
2018-10-01T03:21:14.208Z,97.48
2018-10-01T03:22:13.979Z,97.48
2018-10-01T03:23:13.985Z,97.07
2018-10-01T03:24:14.076Z,96.97
2018-10-01T03:25:13.986Z,96.97
2018-10-01T03:26:14.129Z,97.28
2018-10-01T03:27:14.084Z,97.48
2018-10-01T03:28:13.905Z,97.63
2018-10-01T03:29:13.906Z,97.79
2018-10-01T03:30:13.946Z,97.89
2018-10-01T03:31:13.919Z,97.48
2018-10-01T03:32:13.863Z,97.12
2018-10-01T03:33:13.897Z,96.97
2018-10-01T03:34:13.906Z,97.32
2018-10-01T03:35:13.840Z,97.53
2018-10-01T03:36:14.002Z,98.04
2018-10-01T03:37:13.829Z,98.10
2018-10-01T03:38:13.904Z,98.55
2018-10-01T03:39:14.139Z,98.45
2018-10-01T03:40:13.907Z,98.55
2018-10-01T03:41:16.098Z,98.04
2018-10-01T03:42:14.143Z,98.04
2018-10-01T03:43:14.026Z,98.25
2018-10-01T03:44:13.870Z,98.04
2018-10-01T03:45:13.799Z,99.38
2018-10-01T03:46:13.936Z,98.25
2018-10-01T03:47:14.150Z,97.42
2018-10-01T03:48:13.713Z,97.22
2018-10-01T03:49:13.684Z,97.32
2018-10-01T03:50:13.905Z,97.22
2018-10-01T03:51:14.475Z,97.42
2018-10-01T03:52:13.651Z,97.94
2018-10-01T03:53:14.430Z,98.20
2018-10-01T03:54:13.899Z,98.55
2018-10-01T03:55:13.874Z,98.55
2018-10-01T03:56:13.679Z,98.04
2018-10-01T03:57:13.629Z,97.42
2018-10-01T03:58:13.614Z,97.32
2018-10-01T03:59:13.590Z,97.63
2018-10-01T04:00:13.708Z,98.45
2018-10-01T04:01:13.552Z,98.14
2018-10-01T04:02:13.688Z,98.14
2018-10-01T04:03:13.527Z,98.25
2018-10-01T04:04:13.516Z,98.55
2018-10-01T04:05:13.509Z,97.89
2018-10-01T04:06:13.731Z,98.14
2018-10-01T04:07:13.594Z,98.66
2018-10-01T04:08:13.649Z,99.07
2018-10-01T04:09:13.517Z,98.30
2018-10-01T04:10:13.544Z,98.30
2018-10-01T04:11:13.441Z,98.41
2018-10-01T04:12:13.462Z,98.71
2018-10-01T04:13:13.485Z,98.92
2018-10-01T04:14:13.412Z,99.12
2018-10-01T04:15:13.399Z,98.10
2018-10-01T04:16:13.386Z,96.87
2018-10-01T04:17:13.411Z,96.41
2018-10-01T04:18:13.498Z,96.20
2018-10-01T04:19:13.359Z,97.13
2018-10-01T04:20:13.400Z,96.62
2018-10-01T04:21:13.361Z,96.31
2018-10-01T04:22:13.322Z,95.79
2018-10-01T04:23:13.337Z,95.24
2018-10-01T04:24:13.419Z,94.67
2018-10-01T04:25:13.290Z,94.83
2018-10-01T04:26:13.462Z,94.62
2018-10-01T04:27:13.289Z,94.32
2018-10-01T04:28:13.288Z,94.83
2018-10-01T04:29:13.248Z,94.42
2018-10-01T04:30:13.703Z,93.70
2018-10-01T04:31:13.308Z,93.66
2018-10-01T04:32:13.529Z,93.55
2018-10-01T04:33:13.247Z,93.29
2018-10-01T04:34:13.294Z,93.35
2018-10-01T04:35:13.184Z,93.86
2018-10-01T04:36:13.257Z,93.80
2018-10-01T04:37:13.168Z,94.21
2018-10-01T04:38:13.236Z,94.11
2018-10-01T04:39:13.142Z,93.70
2018-10-01T04:40:13.419Z,94.21
2018-10-01T04:41:13.275Z,94.01
2018-10-01T04:42:13.490Z,94.32
2018-10-01T04:43:13.123Z,94.32
2018-10-01T04:44:13.102Z,94.32
2018-10-01T04:45:13.100Z,94.62
2018-10-01T04:46:13.068Z,94.56
2018-10-01T04:47:13.055Z,94.26
2018-10-01T04:48:13.059Z,94.56
2018-10-01T04:49:13.184Z,94.77
2018-10-01T04:50:13.028Z,94.56
2018-10-01T04:51:13.062Z,94.67
2018-10-01T04:52:13.009Z,94.56
2018-10-01T04:53:13.034Z,94.36
2018-10-01T04:54:13.029Z,95.49
2018-10-01T04:55:12.964Z,94.71
2018-10-01T04:56:12.975Z,94.67
2018-10-01T04:57:13.086Z,95.74
2018-10-01T04:58:13.049Z,95.43
2018-10-01T04:59:12.970Z,95.32
2018-10-01T05:00:12.943Z,95.64
2018-10-01T05:01:13.039Z,95.94
2018-10-01T05:02:13.008Z,95.64
2018-10-01T05:03:12.968Z,95.84
2018-10-01T05:04:12.949Z,96.09
2018-10-01T05:05:12.884Z,96.15
2018-10-01T05:06:12.926Z,96.15
2018-10-01T05:07:12.843Z,95.98
2018-10-01T05:08:12.888Z,96.19
2018-10-01T05:09:12.918Z,96.25
2018-10-01T05:10:12.835Z,96.35
2018-10-01T05:11:12.802Z,96.04
2018-10-01T05:12:12.801Z,95.84
2018-10-01T05:13:12.843Z,95.94
2018-10-01T05:14:12.940Z,95.64
2018-10-01T05:15:12.773Z,96.45
2018-10-01T05:16:12.745Z,96.04
2018-10-01T05:17:12.728Z,96.35
2018-10-01T05:18:12.752Z,96.15
2018-10-01T05:19:12.709Z,96.35
2018-10-01T05:20:12.872Z,96.35
2018-10-01T05:21:12.685Z,96.77
2018-10-01T05:22:12.800Z,97.22
2018-10-01T05:23:12.817Z,96.50
2018-10-01T05:24:12.656Z,96.19
2018-10-01T05:25:12.672Z,96.09
2018-10-01T05:26:12.630Z,96.45
2018-10-01T05:27:12.732Z,96.40
2018-10-01T05:28:12.626Z,96.97
2018-10-01T05:29:12.707Z,96.40
2018-10-01T05:30:12.632Z,97.12
2018-10-01T05:31:12.661Z,97.07
2018-10-01T05:32:12.673Z,97.38
2018-10-01T05:33:12.582Z,97.22
2018-10-01T05:34:12.543Z,97.12
2018-10-01T05:35:12.573Z,97.32
2018-10-01T05:36:12.521Z,97.63
2018-10-01T05:37:12.528Z,97.32
2018-10-01T05:38:12.504Z,98.14
2018-10-01T05:39:12.680Z,97.73
2018-10-01T05:40:12.514Z,97.32
2018-10-01T05:41:12.641Z,97.22
2018-10-01T05:42:12.638Z,97.63
2018-10-01T05:43:12.447Z,97.73
2018-10-01T05:44:12.437Z,97.53
2018-10-01T05:45:12.447Z,98.45
2018-10-01T05:46:12.643Z,98.04
2018-10-01T05:47:12.408Z,98.45
2018-10-01T05:48:12.644Z,98.66
2018-10-01T05:49:12.489Z,98.25
2018-10-01T05:50:12.579Z,98.55
2018-10-01T05:51:12.388Z,98.76
2018-10-01T05:52:12.401Z,98.82
2018-10-01T05:53:12.352Z,98.35
2018-10-01T05:54:12.399Z,98.14
2018-10-01T05:55:12.323Z,97.69
2018-10-01T05:56:12.344Z,97.28
2018-10-01T05:57:12.300Z,96.25
2018-10-01T05:58:12.449Z,96.25
2018-10-01T05:59:12.344Z,96.35
2018-10-01T06:00:12.405Z,96.35
2018-10-01T06:01:12.316Z,96.35
2018-10-01T06:02:12.245Z,95.69
2018-10-01T06:03:12.247Z,95.49
2018-10-01T06:04:12.280Z,95.79
2018-10-01T06:05:12.352Z,96.51
2018-10-01T06:06:12.230Z,96.72
2018-10-01T06:07:12.187Z,96.20
2018-10-01T06:08:12.180Z,96.00
2018-10-01T06:09:12.175Z,95.39
2018-10-01T06:10:12.218Z,95.28
2018-10-01T06:11:12.181Z,96.10
2018-10-01T06:12:12.160Z,95.59
2018-10-01T06:13:12.198Z,94.77
2018-10-01T06:14:12.197Z,94.36
2018-10-01T06:15:12.104Z,94.11
2018-10-01T06:16:12.098Z,94.21
2018-10-01T06:17:12.236Z,94.21
2018-10-01T06:18:12.133Z,94.21
2018-10-01T06:19:12.243Z,94.27
2018-10-01T06:20:12.110Z,94.21
2018-10-01T06:21:12.042Z,94.42
2018-10-01T06:22:12.055Z,94.89
2018-10-01T06:23:12.021Z,94.58
2018-10-01T06:24:12.006Z,93.04
2018-10-01T06:25:12.059Z,93.55
2018-10-01T06:26:11.990Z,93.45
2018-10-01T06:27:12.031Z,92.74
2018-10-01T06:28:11.962Z,92.83
2018-10-01T06:29:11.964Z,93.41
2018-10-01T06:30:11.950Z,92.79
2018-10-01T06:31:11.985Z,92.43
2018-10-01T06:32:12.055Z,92.83
2018-10-01T06:33:11.906Z,92.53
2018-10-01T06:34:11.915Z,92.38
2018-10-01T06:35:11.992Z,92.08
2018-10-01T06:36:11.961Z,92.90
2018-10-01T06:37:11.876Z,92.08
2018-10-01T06:38:11.959Z,92.18
2018-10-01T06:39:11.848Z,92.34
2018-10-01T06:40:11.849Z,92.24
2018-10-01T06:41:11.846Z,91.63
2018-10-01T06:42:11.891Z,92.14
2018-10-01T06:43:11.830Z,91.16
2018-10-01T06:44:11.791Z,91.11
2018-10-01T06:45:11.781Z,91.83
2018-10-01T06:46:11.767Z,90.60
2018-10-01T06:47:11.838Z,89.78
2018-10-01T06:48:11.841Z,90.66
2018-10-01T06:49:11.754Z,89.84
2018-10-01T06:50:11.719Z,89.98
2018-10-01T06:51:11.764Z,89.03
2018-10-01T06:52:11.714Z,89.37
2018-10-01T06:53:11.728Z,89.12
2018-10-01T06:54:11.951Z,89.03
2018-10-01T06:55:11.667Z,88.62
2018-10-01T06:56:11.665Z,88.20
2018-10-01T06:57:11.659Z,88.68
2018-10-01T06:58:11.663Z,88.98
2018-10-01T06:59:11.749Z,88.78
2018-10-01T07:00:11.616Z,88.37
2018-10-01T07:01:11.720Z,88.68
2018-10-01T07:02:11.625Z,87.35
2018-10-01T07:03:11.638Z,87.35
2018-10-01T07:04:11.594Z,87.10
2018-10-01T07:05:11.596Z,86.69
2018-10-01T07:06:11.554Z,86.79
2018-10-01T07:07:11.564Z,87.20
2018-10-01T07:08:11.670Z,87.10
2018-10-01T07:09:11.573Z,87.30
2018-10-01T07:10:11.508Z,86.59
2018-10-01T07:11:11.511Z,86.90
2018-10-01T07:12:11.592Z,86.90
2018-10-01T07:13:11.479Z,86.38
2018-10-01T07:14:11.506Z,85.77
2018-10-01T07:15:11.478Z,86.29
2018-10-01T07:16:11.503Z,85.57
2018-10-01T07:17:11.531Z,85.57
2018-10-01T07:18:11.423Z,86.04
2018-10-01T07:19:11.457Z,85.63
2018-10-01T07:20:11.446Z,85.63
2018-10-01T07:21:11.550Z,85.83
2018-10-01T07:22:11.374Z,85.12
2018-10-01T07:23:11.508Z,85.73
2018-10-01T07:24:11.426Z,85.02
2018-10-01T07:25:11.457Z,84.50
2018-10-01T07:26:11.433Z,84.61
2018-10-01T07:27:11.325Z,84.47
2018-10-01T07:28:11.308Z,83.85
2018-10-01T07:29:11.318Z,83.95
2018-10-01T07:30:11.291Z,84.16
2018-10-01T07:31:11.310Z,84.12
2018-10-01T07:32:11.341Z,83.85
2018-10-01T07:33:11.259Z,83.65
2018-10-01T07:34:11.245Z,84.16
2018-10-01T07:35:11.281Z,82.53
2018-10-01T07:36:11.402Z,83.61
2018-10-01T07:37:11.339Z,83.40
2018-10-01T07:38:11.200Z,84.53
2018-10-01T07:39:11.191Z,82.39
2018-10-01T07:40:11.182Z,82.59
2018-10-01T07:41:11.388Z,81.98
2018-10-01T07:42:11.201Z,81.73
2018-10-01T07:43:11.147Z,80.96
2018-10-01T07:44:11.138Z,81.23
2018-10-01T07:45:11.332Z,81.12
2018-10-01T07:46:11.277Z,80.91
2018-10-01T07:47:11.270Z,80.51
2018-10-01T07:48:11.101Z,80.10
2018-10-01T07:49:11.103Z,80.57
2018-10-01T07:50:11.076Z,80.07
2018-10-01T07:51:11.299Z,80.16
2018-10-01T07:52:11.085Z,79.93
2018-10-01T07:53:11.061Z,80.16
2018-10-01T07:54:11.029Z,80.54
2018-10-01T07:55:11.117Z,78.39
2018-10-01T07:56:11.030Z,78.70
2018-10-01T07:57:11.081Z,78.80
2018-10-01T07:58:11.191Z,79.11
2018-10-01T07:59:10.976Z,80.23
2018-10-01T08:00:11.091Z,78.70
2018-10-01T08:01:10.974Z,77.82
2018-10-01T08:02:11.000Z,77.68
2018-10-01T08:03:11.096Z,78.60
2018-10-01T08:04:10.987Z,78.91
2018-10-01T08:05:10.920Z,80.23
2018-10-01T08:06:10.902Z,80.09
2018-10-01T08:07:10.976Z,78.09
2018-10-01T08:08:11.023Z,78.30
2018-10-01T08:09:10.879Z,78.80
2018-10-01T08:10:10.856Z,77.98
2018-10-01T08:11:11.010Z,77.89
2018-10-01T08:12:10.843Z,77.89
2018-10-01T08:13:10.850Z,77.95
2018-10-01T08:14:10.959Z,77.24
2018-10-01T08:15:10.803Z,77.14
2018-10-01T08:16:10.809Z,77.44
2018-10-01T08:17:10.786Z,76.62
2018-10-01T08:18:10.793Z,76.08
2018-10-01T08:19:10.777Z,77.00
2018-10-01T08:20:10.789Z,75.98
2018-10-01T08:21:10.762Z,76.15
2018-10-01T08:22:10.719Z,75.84
2018-10-01T08:23:10.772Z,75.33
2018-10-01T08:24:10.744Z,74.96
2018-10-01T08:25:10.690Z,75.33
2018-10-01T08:26:10.728Z,74.45
2018-10-01T08:27:10.675Z,75.06
2018-10-01T08:28:10.746Z,75.67
2018-10-01T08:29:10.736Z,76.08
2018-10-01T08:30:10.632Z,76.39
2018-10-01T08:31:10.637Z,75.88
2018-10-01T08:32:10.650Z,76.39
2018-10-01T08:33:10.650Z,76.49
2018-10-01T08:34:10.611Z,75.88
2018-10-01T08:35:10.632Z,74.90
2018-10-01T08:36:10.587Z,74.55
2018-10-01T08:37:10.558Z,74.76
2018-10-01T08:38:10.567Z,74.45
2018-10-01T08:39:10.677Z,75.06
2018-10-01T08:40:10.557Z,73.74
2018-10-01T08:41:10.515Z,74.65
2018-10-01T08:42:10.508Z,74.65
2018-10-01T08:43:10.510Z,73.64
2018-10-01T08:44:10.527Z,73.64
2018-10-01T08:45:10.493Z,73.10
2018-10-01T08:46:10.459Z,73.02
2018-10-01T08:47:10.572Z,72.48
2018-10-01T08:48:10.449Z,72.41
2018-10-01T08:49:10.637Z,73.02
2018-10-01T08:50:10.537Z,73.84
2018-10-01T08:51:10.542Z,73.43
2018-10-01T08:52:13.320Z,73.84
2018-10-01T08:53:10.476Z,73.54
2018-10-01T08:54:10.447Z,72.31
2018-10-01T08:55:10.857Z,72.72
2018-10-01T08:56:10.832Z,72.62
2018-10-01T08:57:10.345Z,72.72
2018-10-01T08:58:10.334Z,72.31
2018-10-01T08:59:10.419Z,70.89
2018-10-01T09:00:10.782Z,71.06
2018-10-01T09:01:10.417Z,70.48
2018-10-01T09:02:10.508Z,70.68
2018-10-01T09:03:10.317Z,70.14
2018-10-01T09:04:10.270Z,68.68
2018-10-01T09:05:10.668Z,68.48
2018-10-01T09:06:10.281Z,67.26
2018-10-01T09:07:10.270Z,67.22
2018-10-01T09:08:10.381Z,68.04
2018-10-01T09:09:10.889Z,68.35
2018-10-01T09:10:10.599Z,69.06
2018-10-01T09:11:10.304Z,67.97
2018-10-01T09:12:10.189Z,68.79
2018-10-01T09:13:10.163Z,68.18
2018-10-01T09:14:10.256Z,67.97
2018-10-01T09:15:10.470Z,68.10
2018-10-01T09:16:10.156Z,68.41
2018-10-01T09:17:10.140Z,68.62
2018-10-01T09:18:10.111Z,68.51
2018-10-01T09:19:10.103Z,68.58
2018-10-01T09:20:10.198Z,68.07
2018-10-01T09:21:10.174Z,69.02
2018-10-01T09:22:10.082Z,68.85
2018-10-01T09:23:10.112Z,68.72
2018-10-01T09:24:10.051Z,67.94
2018-10-01T09:25:10.037Z,67.60
2018-10-01T09:26:10.067Z,67.60
2018-10-01T09:27:10.025Z,67.30
2018-10-01T09:28:10.009Z,66.86
2018-10-01T09:29:10.200Z,66.58
2018-10-01T09:30:09.980Z,67.27
2018-10-01T09:31:10.087Z,66.86
2018-10-01T09:32:09.994Z,66.02
2018-10-01T09:33:10.009Z,66.42
2018-10-01T09:34:09.947Z,66.22
2018-10-01T09:35:09.943Z,65.71
2018-10-01T09:36:09.924Z,65.81
2018-10-01T09:37:10.054Z,65.33
2018-10-01T09:38:09.981Z,66.05
2018-10-01T09:39:09.878Z,65.44
2018-10-01T09:40:09.996Z,66.05
2018-10-01T09:41:09.873Z,65.36
2018-10-01T09:42:10.120Z,65.94
2018-10-01T09:43:10.173Z,66.55
2018-10-01T09:44:09.857Z,66.96
2018-10-01T09:45:09.820Z,64.96
2018-10-01T09:46:10.477Z,65.97
2018-10-01T09:47:12.253Z,65.67
2018-10-01T09:48:09.993Z,66.38
2018-10-01T09:49:09.775Z,66.38
2018-10-01T09:50:09.811Z,66.58
2018-10-01T09:51:11.664Z,65.91
2018-10-01T09:52:09.952Z,66.41
2018-10-01T09:53:09.779Z,65.47
2018-10-01T09:54:09.830Z,65.47
2018-10-01T09:55:09.709Z,65.64
2018-10-01T09:56:09.736Z,66.46
2018-10-01T09:57:09.705Z,65.67
2018-10-01T09:58:09.734Z,65.16
2018-10-01T09:59:10.184Z,66.11
2018-10-01T10:00:09.695Z,66.00
2018-10-01T10:01:09.732Z,65.83
2018-10-01T10:02:09.828Z,67.05
2018-10-01T10:03:09.991Z,66.35
2018-10-01T10:04:09.747Z,65.56
2018-10-01T10:05:09.876Z,66.47
2018-10-01T10:06:09.894Z,66.58
2018-10-01T10:07:11.495Z,66.78
2018-10-01T10:08:09.580Z,66.17
2018-10-01T10:09:09.602Z,66.04
2018-10-01T10:10:09.630Z,66.75
2018-10-01T10:11:09.549Z,65.09
2018-10-01T10:12:09.640Z,64.99
2018-10-01T10:13:09.535Z,63.33
2018-10-01T10:14:09.588Z,61.27
2018-10-01T10:15:09.577Z,61.68
2018-10-01T10:16:09.588Z,61.34
2018-10-01T10:17:09.743Z,59.99
2018-10-01T10:18:09.456Z,60.37
2018-10-01T10:19:09.441Z,60.17
2018-10-01T10:20:09.882Z,60.75
2018-10-01T10:21:09.420Z,60.98
2018-10-01T10:22:09.496Z,60.65
2018-10-01T10:23:09.793Z,60.75
2018-10-01T10:24:09.400Z,60.75
2018-10-01T10:25:09.705Z,59.05
2018-10-01T10:26:09.417Z,60.07
2018-10-01T10:27:09.435Z,60.50
2018-10-01T10:28:09.392Z,60.60
2018-10-01T10:29:09.337Z,60.81
2018-10-01T10:30:09.350Z,61.04
2018-10-01T10:31:09.324Z,60.53
2018-10-01T10:32:09.403Z,61.07
2018-10-01T10:33:09.387Z,61.57
2018-10-01T10:34:09.428Z,62.26
2018-10-01T10:35:09.271Z,61.27
2018-10-01T10:36:09.320Z,61.44
2018-10-01T10:37:09.273Z,59.99
2018-10-01T10:38:09.380Z,59.89
2018-10-01T10:39:09.237Z,59.97
2018-10-01T10:40:09.295Z,60.17
2018-10-01T10:41:09.217Z,58.95
2018-10-01T10:42:09.195Z,58.45
2018-10-01T10:43:09.206Z,58.24
2018-10-01T10:44:09.329Z,58.45
2018-10-01T10:45:09.157Z,58.62
2018-10-01T10:46:09.149Z,58.80
2018-10-01T10:47:09.170Z,58.29
2018-10-01T10:48:09.204Z,57.10
2018-10-01T10:49:09.126Z,58.11
2018-10-01T10:50:09.416Z,57.33
2018-10-01T10:51:09.090Z,57.40
2018-10-01T10:52:09.130Z,57.33
2018-10-01T10:53:09.093Z,57.84
2018-10-01T10:54:09.061Z,58.14
2018-10-01T10:55:09.050Z,57.73
2018-10-01T10:56:09.504Z,57.73
2018-10-01T10:57:09.141Z,57.53
2018-10-01T10:58:09.037Z,58.24
2018-10-01T10:59:09.247Z,58.14
2018-10-01T11:00:08.994Z,58.54
2018-10-01T11:01:08.993Z,57.53
2018-10-01T11:02:09.082Z,57.84
2018-10-01T11:03:08.983Z,57.64
2018-10-01T11:04:08.946Z,58.11
2018-10-01T11:05:08.943Z,56.77
2018-10-01T11:06:08.927Z,57.45
2018-10-01T11:07:08.985Z,56.61
2018-10-01T11:08:09.029Z,56.61
2018-10-01T11:09:08.905Z,55.30
2018-10-01T11:10:08.973Z,56.03
2018-10-01T11:11:09.001Z,56.03
2018-10-01T11:12:08.869Z,56.44
2018-10-01T11:13:08.851Z,57.15
2018-10-01T11:14:08.973Z,57.04
2018-10-01T11:15:09.067Z,57.15
2018-10-01T11:16:08.844Z,57.86
2018-10-01T11:17:08.815Z,57.88
2018-10-01T11:18:08.887Z,56.67
2018-10-01T11:19:09.011Z,57.81
2018-10-01T11:20:08.801Z,58.52
2018-10-01T11:21:08.816Z,58.34
2018-10-01T11:22:08.754Z,59.77
2018-10-01T11:23:08.779Z,59.56
2018-10-01T11:24:08.774Z,60.60
2018-10-01T11:25:08.939Z,61.62
2018-10-01T11:26:08.711Z,63.85
2018-10-01T11:27:08.860Z,65.13
2018-10-01T11:28:08.695Z,68.11
2018-10-01T11:29:08.792Z,69.43
2018-10-01T11:30:08.678Z,70.18
2018-10-01T11:31:08.785Z,69.29
2018-10-01T11:32:08.666Z,69.49
2018-10-01T11:33:08.647Z,70.01
2018-10-01T11:34:08.655Z,70.55
2018-10-01T11:35:08.840Z,69.12
2018-10-01T11:36:08.623Z,70.65
2018-10-01T11:37:08.637Z,70.55
2018-10-01T11:38:08.579Z,70.34
2018-10-01T11:39:08.635Z,68.79
2018-10-01T11:40:08.556Z,68.79
2018-10-01T11:41:08.555Z,68.79
2018-10-01T11:42:08.538Z,68.35
2018-10-01T11:43:08.538Z,67.33
2018-10-01T11:44:08.551Z,66.72
2018-10-01T11:45:08.631Z,67.19
2018-10-01T11:46:08.588Z,67.36
2018-10-01T11:47:08.481Z,66.35
2018-10-01T11:48:08.493Z,66.46
2018-10-01T11:49:08.584Z,66.63
2018-10-01T11:50:08.463Z,65.30
2018-10-01T11:51:08.568Z,65.91
2018-10-01T11:52:08.435Z,65.78
2018-10-01T11:53:08.454Z,65.65
2018-10-01T11:54:08.422Z,66.77
2018-10-01T11:55:08.485Z,66.63
2018-10-01T11:56:08.463Z,65.85
2018-10-01T11:57:08.450Z,65.45
2018-10-01T11:58:08.446Z,65.17
2018-10-01T11:59:08.366Z,65.27
2018-10-01T12:00:08.376Z,65.48
2018-10-01T12:01:08.334Z,63.55
2018-10-01T12:02:08.457Z,63.85
2018-10-01T12:03:08.516Z,63.55
2018-10-01T12:04:08.381Z,63.85
2018-10-01T12:05:08.322Z,63.72
2018-10-01T12:06:08.342Z,63.42
2018-10-01T12:07:08.293Z,63.29
2018-10-01T12:08:08.352Z,62.48
2018-10-01T12:09:08.307Z,62.37
2018-10-01T12:10:08.274Z,61.63
2018-10-01T12:11:08.451Z,61.13
2018-10-01T12:12:08.268Z,61.43
2018-10-01T12:13:08.297Z,61.59
2018-10-01T12:14:08.184Z,62.60
2018-10-01T12:15:08.237Z,63.32
2018-10-01T12:16:08.427Z,63.08
2018-10-01T12:17:08.152Z,64.13
2018-10-01T12:18:08.152Z,63.52
2018-10-01T12:19:08.276Z,64.23
2018-10-01T12:20:08.136Z,64.36
2018-10-01T12:21:08.165Z,66.02
2018-10-01T12:22:08.125Z,67.06
2018-10-01T12:23:08.161Z,68.59
2018-10-01T12:24:08.081Z,69.74
2018-10-01T12:25:08.065Z,71.16
2018-10-01T12:26:08.079Z,69.74
2018-10-01T12:27:08.081Z,68.62
2018-10-01T12:28:08.159Z,68.28
2018-10-01T12:29:08.092Z,66.55
2018-10-01T12:30:08.048Z,64.94
2018-10-01T12:31:08.056Z,64.30
2018-10-01T12:32:07.984Z,63.82
2018-10-01T12:33:08.130Z,63.95
2018-10-01T12:34:07.967Z,63.85
2018-10-01T12:35:08.065Z,64.49
2018-10-01T12:36:08.156Z,64.18
2018-10-01T12:37:07.944Z,63.68
2018-10-01T12:38:07.924Z,63.55
2018-10-01T12:39:07.977Z,63.88
2018-10-01T12:40:07.933Z,63.81
2018-10-01T12:41:07.937Z,64.35
2018-10-01T12:42:07.894Z,64.35
2018-10-01T12:43:07.906Z,63.57
2018-10-01T12:44:07.854Z,64.41
2018-10-01T12:45:07.938Z,65.46
2018-10-01T12:46:07.832Z,66.71
2018-10-01T12:47:07.960Z,66.82
2018-10-01T12:48:07.811Z,68.37
2018-10-01T12:49:07.798Z,70.04
2018-10-01T12:50:07.918Z,72.41
2018-10-01T12:51:07.862Z,74.69
2018-10-01T12:52:07.796Z,75.82